createdAt,value
2022-08-22T00:00:19.631Z,7.73
2022-08-22T00:03:08.535Z,4.90
2022-08-22T00:06:09.619Z,8.20
2022-08-22T00:08:49.433Z,8.30
2022-08-22T00:11:29.532Z,8.43
2022-08-22T00:14:07.363Z,7.90
2022-08-22T00:16:45.141Z,7.40
2022-08-22T00:19:22.758Z,8.40
2022-08-22T00:22:01.422Z,7.23
2022-08-22T00:24:35.173Z,8.33
2022-08-22T00:27:06.226Z,8.37
2022-08-22T00:29:43.492Z,8.83
2022-08-22T00:32:19.537Z,8.30
2022-08-22T00:34:58.043Z,7.83
2022-08-22T00:37:31.361Z,8.23
2022-08-22T00:40:09.397Z,8.33
2022-08-22T00:42:54.423Z,8.70
2022-08-22T00:45:49.091Z,8.43
2022-08-22T00:48:43.419Z,9.07
2022-08-22T00:51:44.965Z,7.90
2022-08-22T00:54:23.811Z,7.90
2022-08-22T00:57:16.493Z,8.63
2022-08-22T01:00:05.291Z,7.93
2022-08-22T01:03:08.094Z,8.23
2022-08-22T01:05:49.868Z,8.93
2022-08-22T01:08:33.837Z,7.63
2022-08-22T01:11:19.929Z,7.53
2022-08-22T01:14:15.724Z,8.17
2022-08-22T01:17:13.755Z,8.63
2022-08-22T01:20:30.421Z,9.53
2022-08-22T01:23:40.962Z,7.67
2022-08-22T01:27:00.223Z,8.33
2022-08-22T01:30:13.634Z,8.30
2022-08-22T01:33:11.894Z,7.30
2022-08-22T01:36:11.193Z,8.23
2022-08-22T01:39:03.960Z,8.10
2022-08-22T01:41:54.953Z,9.10
2022-08-22T01:44:50.385Z,8.80
2022-08-22T01:47:22.984Z,7.93
2022-08-22T01:49:57.110Z,7.87
2022-08-22T01:52:38.629Z,9.00
2022-08-22T01:55:13.566Z,9.17
2022-08-22T01:57:54.300Z,8.83
2022-08-22T02:00:35.277Z,9.50
2022-08-22T02:03:23.390Z,9.30
2022-08-22T02:05:59.856Z,8.40
2022-08-22T02:08:39.068Z,8.70
2022-08-22T02:11:10.551Z,7.57
2022-08-22T02:13:52.281Z,9.97
2022-08-22T02:16:33.157Z,8.40
2022-08-22T02:19:12.730Z,9.13
2022-08-22T02:21:51.543Z,8.60
2022-08-22T02:24:27.228Z,8.73
2022-08-22T02:27:09.571Z,8.10
2022-08-22T02:29:53.532Z,8.47
2022-08-22T02:32:28.089Z,8.63
2022-08-22T02:35:07.561Z,8.40
2022-08-22T02:37:40.847Z,8.53
2022-08-22T02:40:17.093Z,9.63
2022-08-22T02:42:51.263Z,8.20
2022-08-22T02:45:36.734Z,8.37
2022-08-22T02:48:15.987Z,8.80
2022-08-22T02:50:53.381Z,8.60
2022-08-22T02:53:29.611Z,8.90
2022-08-22T02:56:04.274Z,10.30
2022-08-22T02:58:40.683Z,9.07
2022-08-22T03:01:37.290Z,8.70
2022-08-22T03:04:25.635Z,7.73
2022-08-22T03:07:13.348Z,8.77
2022-08-22T03:09:49.690Z,9.20
2022-08-22T03:12:32.098Z,9.03
2022-08-22T03:15:08.857Z,8.67
2022-08-22T03:17:48.171Z,9.60
2022-08-22T03:20:23.733Z,8.40
2022-08-22T03:23:00.652Z,8.37
2022-08-22T03:25:36.144Z,8.10
2022-08-22T03:28:12.044Z,8.17
2022-08-22T03:30:43.948Z,8.17
2022-08-22T03:33:18.618Z,8.10
2022-08-22T03:36:06.555Z,8.50
2022-08-22T03:38:55.498Z,9.13
2022-08-22T03:42:04.479Z,10.30
2022-08-22T03:44:56.151Z,9.50
2022-08-22T03:48:13.644Z,8.53
2022-08-22T03:51:13.472Z,8.50
2022-08-22T03:54:20.928Z,9.27
2022-08-22T03:57:18.222Z,7.80
2022-08-22T04:00:10.602Z,9.43
2022-08-22T04:03:16.815Z,8.73
2022-08-22T04:06:21.921Z,9.67
2022-08-22T04:09:23.852Z,8.20
2022-08-22T04:12:13.289Z,7.97
2022-08-22T04:15:07.478Z,7.63
2022-08-22T04:18:07.910Z,8.10
2022-08-22T04:21:10.819Z,8.50
2022-08-22T04:24:10.235Z,8.80
2022-08-22T04:26:46.002Z,8.37
2022-08-22T04:29:20.732Z,9.03
2022-08-22T04:31:58.291Z,9.50
2022-08-22T04:34:36.215Z,8.13
2022-08-22T04:37:11.040Z,8.23
2022-08-22T04:39:47.551Z,8.67
2022-08-22T04:42:36.693Z,9.60
2022-08-22T04:45:13.378Z,8.60
2022-08-22T04:47:54.109Z,9.10
2022-08-22T04:50:31.917Z,8.87
2022-08-22T04:53:47.169Z,8.33
2022-08-22T04:56:23.374Z,8.93
2022-08-22T04:58:58.115Z,9.07
2022-08-22T05:01:39.803Z,8.50
2022-08-22T05:04:12.763Z,9.50
2022-08-22T05:06:46.580Z,9.83
2022-08-22T05:09:18.677Z,8.90
2022-08-22T05:11:49.630Z,9.23
2022-08-22T05:14:24.053Z,9.97
2022-08-22T05:16:55.693Z,9.70
2022-08-22T05:19:32.129Z,9.10
2022-08-22T05:22:01.727Z,9.07
2022-08-22T05:24:36.297Z,9.37
2022-08-22T05:27:11.322Z,7.90
2022-08-22T05:29:43.601Z,9.10
2022-08-22T05:32:21.411Z,9.10
2022-08-22T05:34:54.352Z,10.90
2022-08-22T05:37:26.883Z,10.00
2022-08-22T05:39:58.548Z,8.50
2022-08-22T05:42:30.565Z,9.50
2022-08-22T05:45:01.899Z,8.60
2022-08-22T05:47:39.368Z,9.97
2022-08-22T05:50:14.729Z,7.40
2022-08-22T05:52:57.750Z,8.00
2022-08-22T05:55:30.794Z,9.40
2022-08-22T05:58:18.293Z,7.83
2022-08-22T06:00:55.174Z,8.23
2022-08-22T06:03:31.361Z,8.90
2022-08-22T06:06:09.338Z,10.93
2022-08-22T06:08:41.637Z,8.60
2022-08-22T06:11:17.051Z,9.70
2022-08-22T06:13:50.461Z,8.97
2022-08-22T06:16:26.814Z,9.00
2022-08-22T06:18:57.293Z,9.63
2022-08-22T06:21:35.456Z,9.40
2022-08-22T06:24:14.172Z,9.00
2022-08-22T06:26:48.699Z,8.90
2022-08-22T06:29:22.972Z,8.10
2022-08-22T06:31:51.770Z,8.37
2022-08-22T06:34:27.001Z,8.03
2022-08-22T06:36:59.467Z,7.10
2022-08-22T06:39:32.515Z,5.67
2022-08-22T06:42:05.507Z,7.47
2022-08-22T06:44:45.636Z,6.33
2022-08-22T06:47:20.664Z,6.93
2022-08-22T06:49:49.742Z,7.10
2022-08-22T06:52:23.397Z,6.90
2022-08-22T06:55:00.160Z,6.70
2022-08-22T06:57:34.101Z,7.77
2022-08-22T07:00:07.106Z,6.77
2022-08-22T07:02:40.830Z,8.13
2022-08-22T07:05:17.523Z,7.60
2022-08-22T07:07:47.898Z,7.60
2022-08-22T07:10:17.775Z,7.90
2022-08-22T07:12:48.703Z,7.30
2022-08-22T07:15:25.117Z,7.60
2022-08-22T07:17:59.191Z,7.30
2022-08-22T07:20:31.961Z,7.90
2022-08-22T07:23:04.449Z,8.40
2022-08-22T07:25:36.364Z,8.70
2022-08-22T07:28:21.106Z,8.03
2022-08-22T07:31:15.477Z,8.60
2022-08-22T07:33:50.374Z,7.73
2022-08-22T07:36:31.067Z,8.73
2022-08-22T07:39:20.102Z,7.30
2022-08-22T07:42:02.418Z,8.97
2022-08-22T07:44:38.475Z,8.00
2022-08-22T07:47:11.167Z,9.80
2022-08-22T07:49:54.037Z,8.20
2022-08-22T07:52:24.695Z,8.97
2022-08-22T07:54:58.231Z,8.23
2022-08-22T07:57:32.493Z,8.27
2022-08-22T08:00:09.941Z,8.70
2022-08-22T08:02:41.209Z,8.77
2022-08-22T08:05:11.258Z,9.90
2022-08-22T08:07:44.634Z,8.40
2022-08-22T08:10:20.019Z,9.03
2022-08-22T08:12:52.778Z,8.67
2022-08-22T08:15:32.988Z,8.63
2022-08-22T08:18:06.484Z,8.93
2022-08-22T08:20:37.127Z,8.93
2022-08-22T08:23:10.050Z,7.97
2022-08-22T08:25:54.296Z,7.37
2022-08-22T08:28:34.692Z,7.40
2022-08-22T08:31:08.644Z,6.87
2022-08-22T08:33:41.297Z,8.30
2022-08-22T08:36:27.633Z,7.30
2022-08-22T08:39:03.798Z,8.10
2022-08-22T08:42:14.304Z,7.70
2022-08-22T08:45:15.038Z,6.57
2022-08-22T08:48:16.703Z,7.40
2022-08-22T08:51:02.010Z,8.07
2022-08-22T08:54:06.453Z,7.47
2022-08-22T08:56:47.324Z,6.93
2022-08-22T08:59:28.444Z,6.60
2022-08-22T09:02:23.633Z,6.67
2022-08-22T09:05:40.047Z,6.10
2022-08-22T09:08:38.953Z,5.20
2022-08-22T09:11:40.223Z,5.13
2022-08-22T09:14:26.993Z,5.83
2022-08-22T09:17:33.249Z,4.60
2022-08-22T09:20:46.651Z,3.20
2022-08-22T09:23:45.920Z,4.77
2022-08-22T09:26:31.862Z,5.03
2022-08-22T09:29:19.032Z,5.60
2022-08-22T09:31:58.341Z,5.60
2022-08-22T09:34:35.243Z,5.83
2022-08-22T09:37:17.681Z,5.00
2022-08-22T09:39:55.446Z,4.23
2022-08-22T09:42:35.369Z,2.40
2022-08-22T09:45:35.151Z,3.50
2022-08-22T09:48:10.038Z,2.90
2022-08-22T09:50:54.636Z,2.47
2022-08-22T09:53:45.175Z,3.07
2022-08-22T09:56:20.845Z,3.93
2022-08-22T09:59:02.086Z,3.17
2022-08-22T10:01:40.067Z,2.57
2022-08-22T10:04:42.541Z,2.90
2022-08-22T10:07:36.530Z,3.30
2022-08-22T10:10:21.498Z,4.50
2022-08-22T10:12:56.055Z,3.03
2022-08-22T10:15:37.894Z,2.90
2022-08-22T10:18:19.701Z,3.50
2022-08-22T10:21:02.493Z,2.70
2022-08-22T10:23:40.505Z,2.10
2022-08-22T10:26:29.427Z,3.13
2022-08-22T10:29:07.078Z,3.13
2022-08-22T10:31:55.552Z,3.17
2022-08-22T10:34:34.118Z,3.00
2022-08-22T10:37:11.753Z,3.60
2022-08-22T10:39:48.281Z,3.73
2022-08-22T10:42:28.171Z,4.13
2022-08-22T10:45:23.715Z,3.83
2022-08-22T10:48:36.491Z,4.80
2022-08-22T10:51:28.891Z,3.70
2022-08-22T10:54:19.970Z,3.90
2022-08-22T10:56:57.349Z,4.17
2022-08-22T10:59:41.479Z,4.40
2022-08-22T11:02:42.340Z,4.30
2022-08-22T11:05:34.158Z,4.30
2022-08-22T11:08:23.313Z,3.30
2022-08-22T11:11:08.214Z,2.93
2022-08-22T11:13:44.197Z,4.67
2022-08-22T11:16:36.754Z,3.50
2022-08-22T11:19:23.951Z,3.50
2022-08-22T11:22:01.626Z,2.97
2022-08-22T11:25:11.717Z,3.17
2022-08-22T11:27:55.805Z,3.93
2022-08-22T11:30:36.455Z,4.40
2022-08-22T11:33:46.514Z,2.20
2022-08-22T11:36:27.863Z,2.13
2022-08-22T11:39:18.162Z,2.00
2022-08-22T11:41:56.226Z,2.87
2022-08-22T11:44:31.204Z,2.33
2022-08-22T11:47:03.033Z,2.93
2022-08-22T11:49:57.486Z,3.00
2022-08-22T11:52:52.650Z,3.27
2022-08-22T11:55:32.591Z,2.90
2022-08-22T11:58:14.756Z,2.73
2022-08-22T12:00:56.019Z,2.80
2022-08-22T12:03:58.652Z,2.47
2022-08-22T12:06:51.524Z,2.90
2022-08-22T12:09:31.854Z,2.40
2022-08-22T12:12:33.683Z,2.60
2022-08-22T12:15:11.920Z,2.53
2022-08-22T12:18:21.385Z,3.00
2022-08-22T12:21:10.872Z,3.00
2022-08-22T12:24:06.170Z,2.83
2022-08-22T12:26:49.925Z,2.90
2022-08-22T12:29:40.089Z,3.13
2022-08-22T12:32:49.918Z,2.70
2022-08-22T12:35:41.196Z,3.20
2022-08-22T12:38:29.269Z,4.13
2022-08-22T12:41:28.467Z,3.43
2022-08-22T12:44:22.461Z,3.97
2022-08-22T12:47:11.824Z,3.80
2022-08-22T12:49:57.458Z,3.20
2022-08-22T12:52:44.281Z,3.60
2022-08-22T12:55:34.830Z,4.30
2022-08-22T12:58:12.810Z,3.90
2022-08-22T13:00:45.179Z,4.50
2022-08-22T13:03:22.526Z,3.97
2022-08-22T13:05:59.896Z,4.40
2022-08-22T13:08:33.474Z,4.30
2022-08-22T13:11:09.841Z,3.67
2022-08-22T13:13:57.256Z,4.73
2022-08-22T13:16:38.428Z,3.90
2022-08-22T13:19:14.415Z,4.33
2022-08-22T13:21:49.635Z,4.00
2022-08-22T13:24:39.155Z,4.43
2022-08-22T13:27:11.715Z,4.30
2022-08-22T13:29:50.594Z,3.97
2022-08-22T13:32:26.457Z,4.87
2022-08-22T13:34:59.851Z,3.90
2022-08-22T13:37:36.633Z,4.13
2022-08-22T13:40:10.979Z,3.80
2022-08-22T13:42:47.811Z,3.80
2022-08-22T13:45:24.939Z,4.60
2022-08-22T13:47:57.809Z,4.07
2022-08-22T13:50:29.057Z,3.90
2022-08-22T13:53:12.162Z,4.00
2022-08-22T13:55:49.009Z,3.60
2022-08-22T13:58:25.210Z,3.63
2022-08-22T14:01:16.963Z,3.63
2022-08-22T14:03:50.114Z,4.30
2022-08-22T14:06:37.745Z,3.77
2022-08-22T14:09:29.540Z,3.37
2022-08-22T14:12:11.831Z,3.40
2022-08-22T14:14:46.091Z,3.50
2022-08-22T14:17:18.611Z,3.70
2022-08-22T14:19:59.406Z,3.30
2022-08-22T14:22:31.736Z,3.80
2022-08-22T14:25:03.794Z,2.80
2022-08-22T14:27:39.690Z,2.90
2022-08-22T14:30:18.822Z,3.17
2022-08-22T14:32:52.176Z,4.03
2022-08-22T14:35:34.858Z,3.10
2022-08-22T14:38:27.394Z,3.30
2022-08-22T14:41:03.656Z,3.30
2022-08-22T14:43:52.375Z,3.23
2022-08-22T14:46:26.603Z,3.43
2022-08-22T14:49:14.767Z,3.33
2022-08-22T14:51:52.239Z,2.83
2022-08-22T14:54:23.522Z,3.07
2022-08-22T14:57:00.188Z,3.87
2022-08-22T14:59:38.319Z,3.13
2022-08-22T15:02:11.701Z,3.57
2022-08-22T15:04:46.087Z,4.20
2022-08-22T15:07:25.981Z,2.60
2022-08-22T15:09:58.368Z,3.30
2022-08-22T15:12:30.755Z,3.27
2022-08-22T15:15:03.230Z,3.33
2022-08-22T15:17:44.091Z,3.40
2022-08-22T15:20:27.683Z,3.60
2022-08-22T15:22:59.217Z,4.53
2022-08-22T15:25:32.055Z,3.83
2022-08-22T15:28:06.645Z,2.77
2022-08-22T15:30:44.355Z,3.20
2022-08-22T15:33:19.032Z,2.97
2022-08-22T15:35:51.022Z,3.93
2022-08-22T15:38:32.900Z,3.20
2022-08-22T15:41:31.508Z,2.90
2022-08-22T15:44:14.872Z,3.10
2022-08-22T15:47:03.961Z,3.10
2022-08-22T15:49:36.441Z,4.10
2022-08-22T15:52:25.905Z,3.43
2022-08-22T15:55:20.030Z,2.80
2022-08-22T15:58:06.362Z,4.23
2022-08-22T16:00:43.482Z,4.27
2022-08-22T16:03:25.009Z,3.17
2022-08-22T16:05:56.411Z,2.90
2022-08-22T16:08:33.060Z,3.40
2022-08-22T16:11:27.533Z,3.43
2022-08-22T16:14:21.416Z,3.23
2022-08-22T16:16:59.758Z,3.17
2022-08-22T16:19:29.588Z,3.77
2022-08-22T16:22:12.664Z,3.63
2022-08-22T16:25:02.347Z,4.27
2022-08-22T16:27:31.637Z,4.10
2022-08-22T16:30:09.712Z,3.73
2022-08-22T16:32:38.981Z,3.80
2022-08-22T16:35:07.866Z,4.60
2022-08-22T16:37:50.301Z,3.40
2022-08-22T16:40:26.516Z,3.50
2022-08-22T16:43:17.666Z,4.20
2022-08-22T16:45:48.542Z,2.97
2022-08-22T16:48:27.641Z,4.10
2022-08-22T16:51:14.906Z,3.50
2022-08-22T16:54:06.496Z,3.33
2022-08-22T16:56:44.939Z,3.17
2022-08-22T16:59:42.211Z,3.30
2022-08-22T17:02:33.199Z,2.87
2022-08-22T17:05:18.557Z,3.60
2022-08-22T17:08:01.609Z,3.37
2022-08-22T17:10:48.064Z,3.37
2022-08-22T17:13:38.747Z,3.40
2022-08-22T17:16:23.451Z,3.17
2022-08-22T17:19:13.120Z,3.00
2022-08-22T17:21:51.791Z,2.50
2022-08-22T17:24:33.962Z,2.70
2022-08-22T17:27:08.654Z,2.80
2022-08-22T17:30:02.109Z,3.20
2022-08-22T17:32:43.012Z,4.43
2022-08-22T17:35:21.745Z,6.07
2022-08-22T17:38:03.620Z,5.20
2022-08-22T17:40:38.824Z,3.87
2022-08-22T17:43:49.146Z,3.70
2022-08-22T17:46:34.985Z,3.20
2022-08-22T17:49:22.856Z,2.77
2022-08-22T17:51:58.511Z,2.87
2022-08-22T17:54:33.542Z,3.50
2022-08-22T17:57:07.117Z,5.00
2022-08-22T17:59:46.553Z,4.80
2022-08-22T18:02:21.967Z,5.70
2022-08-22T18:05:01.711Z,6.00
2022-08-22T18:07:52.987Z,5.77
2022-08-22T18:10:29.115Z,6.77
2022-08-22T18:13:07.072Z,4.60
2022-08-22T18:15:43.241Z,3.40
2022-08-22T18:18:25.892Z,2.80
2022-08-22T18:21:07.201Z,3.10
2022-08-22T18:23:41.182Z,2.87
2022-08-22T18:30:19.833Z,2.60
2022-08-22T18:32:57.065Z,2.90
2022-08-22T18:38:46.710Z,3.40
2022-08-22T18:41:35.785Z,4.10
2022-08-22T18:44:19.096Z,3.93
2022-08-22T18:46:56.542Z,3.40
2022-08-22T18:49:45.802Z,3.60
2022-08-22T18:52:46.358Z,3.60
2022-08-22T18:55:28.980Z,4.60
2022-08-22T18:58:28.983Z,3.10
2022-08-22T19:01:12.250Z,3.87
2022-08-22T19:04:03.270Z,3.57
2022-08-22T19:07:06.198Z,3.70
2022-08-22T19:10:12.820Z,3.70
2022-08-22T19:13:01.704Z,3.70
2022-08-22T19:15:41.550Z,4.17
2022-08-22T19:18:39.287Z,3.53
2022-08-22T19:21:41.227Z,3.50
2022-08-22T19:24:13.267Z,3.97
2022-08-22T19:27:10.497Z,4.77
2022-08-22T19:29:58.632Z,3.77
2022-08-22T19:33:09.910Z,26.43
2022-08-22T19:36:08.503Z,5.10
2022-08-22T19:38:57.847Z,3.83
2022-08-22T19:41:42.909Z,4.03
2022-08-22T19:44:33.851Z,4.63
2022-08-22T19:47:11.571Z,3.90
2022-08-22T19:49:44.210Z,4.17
2022-08-22T19:52:28.181Z,4.47
2022-08-22T19:55:10.555Z,4.70
2022-08-22T19:57:46.433Z,4.20
2022-08-22T20:00:20.608Z,3.50
2022-08-22T20:03:01.941Z,4.30
2022-08-22T20:05:47.435Z,4.17
2022-08-22T20:08:48.946Z,4.20
2022-08-22T20:11:29.794Z,5.00
2022-08-22T20:14:13.691Z,5.33
2022-08-22T20:17:15.307Z,3.10
2022-08-22T20:22:47.107Z,3.93
2022-08-22T20:25:43.723Z,3.40
2022-08-22T20:28:40.044Z,4.43
2022-08-22T20:31:13.744Z,5.03
2022-08-22T20:33:46.998Z,4.60
2022-08-22T20:36:27.692Z,4.83
2022-08-22T20:39:02.284Z,4.17
2022-08-22T20:41:36.845Z,4.50
2022-08-22T20:44:12.641Z,3.70
2022-08-22T20:46:54.929Z,3.87
2022-08-22T20:49:33.441Z,4.37
2022-08-22T20:52:09.023Z,4.60
2022-08-22T20:54:42.114Z,3.80
2022-08-22T20:57:17.768Z,4.00
2022-08-22T20:59:54.499Z,3.63
2022-08-22T21:02:27.425Z,3.73
2022-08-22T21:05:03.612Z,3.40
2022-08-22T21:07:35.790Z,3.27
2022-08-22T21:10:25.326Z,3.43
2022-08-22T21:13:06.691Z,3.40
2022-08-22T21:15:36.958Z,3.20
2022-08-22T21:18:06.025Z,3.30
2022-08-22T21:20:45.042Z,4.50
2022-08-22T21:23:19.941Z,3.80
2022-08-22T21:26:05.669Z,3.70
2022-08-22T21:28:38.371Z,3.80
2022-08-22T21:31:15.421Z,3.30
2022-08-22T21:33:52.912Z,4.03
2022-08-22T21:36:57.875Z,3.53
2022-08-22T21:43:07.328Z,4.30
2022-08-22T21:45:43.405Z,3.70
2022-08-22T21:48:32.021Z,3.93
2022-08-22T21:51:22.203Z,3.77
2022-08-22T21:54:03.704Z,4.50
2022-08-22T21:56:41.802Z,3.70
2022-08-22T21:59:50.827Z,4.30
2022-08-22T22:02:37.375Z,5.00
2022-08-22T22:05:11.462Z,4.67
2022-08-22T22:07:44.163Z,5.17
2022-08-22T22:10:16.712Z,5.83
2022-08-22T22:12:49.800Z,5.00
2022-08-22T22:15:24.652Z,6.30
2022-08-22T22:17:53.739Z,5.20
2022-08-22T22:20:26.219Z,5.70
2022-08-22T22:22:55.224Z,6.10
2022-08-22T22:25:40.854Z,5.93
2022-08-22T22:28:14.103Z,5.90
2022-08-22T22:30:47.633Z,6.17
2022-08-22T22:33:18.273Z,5.67
2022-08-22T22:35:56.497Z,5.83
2022-08-22T22:38:28.030Z,6.10
2022-08-22T22:41:04.004Z,5.70
2022-08-22T22:43:39.950Z,6.30
2022-08-22T22:46:29.620Z,5.80
2022-08-22T22:49:04.956Z,6.63
2022-08-22T22:54:50.311Z,5.70
2022-08-22T23:00:52.641Z,7.07
2022-08-22T23:03:28.059Z,6.47
2022-08-22T23:05:56.801Z,7.20
2022-08-22T23:08:28.245Z,7.70
2022-08-22T23:11:00.743Z,7.83
2022-08-22T23:13:39.893Z,6.30
2022-08-22T23:16:14.059Z,6.83
2022-08-22T23:18:45.835Z,6.83
2022-08-22T23:21:22.316Z,7.57
2022-08-22T23:23:56.016Z,7.43
2022-08-22T23:26:30.120Z,7.53
2022-08-22T23:29:01.034Z,7.43
2022-08-22T23:31:33.693Z,7.53
2022-08-22T23:34:09.806Z,6.43
2022-08-22T23:36:41.276Z,7.13
2022-08-22T23:39:14.046Z,6.50
2022-08-22T23:41:45.629Z,7.77
2022-08-22T23:44:23.779Z,7.07
2022-08-22T23:46:56.399Z,6.80
2022-08-22T23:49:32.667Z,7.00
2022-08-22T23:52:04.782Z,6.20
2022-08-22T23:54:34.280Z,7.50
2022-08-22T23:57:11.871Z,7.83
2022-08-22T23:59:48.435Z,7.80
